My Meet Scores
Claire Bazan, Flipstar Gymnastics Academy - MyMeetScores.com
Top100 | Top Teams | Upcoming Meets | Completed Meets | Latest | Add Scores | Help| Support | Bookmark and Share

Claire Bazan, Flipstar Gymnastics Academy
Personal Bests
LevelVault BarsBeamFloorAA
39.5759.625 9.5009.45037.800
49.4509.700 9.8009.75038.675
68.9759.650 9.8009.62537.725
79.1759.775 9.4509.55036.950
Scores on America's Top 100as of 02.20.2020
Year Level Vault Bars Beam Floor AA
2018 438.675
2019 69.800
2020 79.775

Click here to view our exclusive Top 100 Collection
Meet Scores
Date Meet Team Session Level Division Vault Bars Beam Floor AA
2020-02-07 IGI Chicago Style Meet Flipstar Gymnastics Academy 223 7 A 9.000 7T 9.400 5 9.450 2 8.200 19T 36.050 6
2020-01-30 Circle of Stars Flipstar Gymnastics Center C07 7 Jr A 8.900 6 9.575 3 8.400 12 8.625 14 35.500 11
2020-01-24 Sand Dollar Invitational 2020 Flipstar Gymnastics Academy B09 7 Jr A 9.175 2 9.775 1 9.275 3T 8.725 13 36.950 2
2019-12-13 Crossroads Classic Flipstar Gymnastics Academy 5 7 Child 9.000 2T 9.575 1 8.800 10T 9.550 1 36.925 2
2019-12-07 Home for the Holidays 2019 Flipstar Gymnastics Academy 6 7 Younger 8.950 2 9.700 1 8.300 10 9.000 10 35.950 5
2019-03-15 Illinois State Championship Level 6,9,10 Flipstar Gymnastics Academy 11 6 Jr A 8.900 17 9.600 4 9.600 3T 9.625 1T 37.725 2
2019-03-01 2019 MEGA Spring Invite Flipstar Gymnastics Academy All 6 All Ages 8.750 32T 9.050 17T 9.350 18T 9.225 26T 36.375 23
2019-02-23 Kinetic Classic 2019 Flipstar Gymnastics Academy 1 6 Younger 8.975 7T 9.500 1 9.700 1 9.400 10 37.575 1
2019-02-08 Midwest Twisters Harley Meet Womens Flipstar Gymnastics Academy O09 6 10 un 8.925 1 9.600 1 9.625 1 9.375 4T 37.525 1
2019-01-25 King Arthur Invitational Flipstar Gymnastics Academy 12 6 JR A 8.500 8T 9.425 2 9.800 1 9.525 2 37.250 1
2019-01-11 Circle of Stars Gymnastics Flipstar Gymnastics Academy B09 6 Junior A 8.675 44T 8.700 33 9.350 5T 9.000 27T 35.725 20T
2018-12-07 Horton Invite Flipstar Gymnastics Academy All 6 Ch 8.500 10T 9.650 1 9.550 1 9.200 7T 36.900 2
2018-03-08 Level 4 & 5 State Flipstar Gymnastics Academy All 4 Ch A 9.450 1 9.050 11 9.700 1 9.425 2T 37.625 2
2018-02-23 Kinetic Classic Flipstar Gymnastics Academy 7 4 Younger 8.900 10T 9.275 8T 9.800 1 9.550 2T 37.525 1
2018-02-16 Big Classic Flipstar Gymnastics Academy 7B 4 Child A 9.425 1 9.700 1 9.800 1 9.750 1 38.675 1
2018-02-09 IGI Chicago Style Gymnastics Meet Flipstar Gymnastics Academy 2 4 211 Lake Shore Dr L4 A 9.025 2 9.300 2 9.450 2 9.300 2 37.075 1
2018-01-26 King Arthur Invitational Flipstar Gymnastics Academy 2 4 Jr A 9.075 1 9.200 1T 9.625 1 9.425 1 37.325 1
2018-01-19 Sand Dollar/ Whitlow Invitational Flipstar Gymnastics Academy E06 4 Jr A 9.300 3 9.025 5 9.725 1 9.475 1 37.525 1
2017-12-08 Horton Invite At IWU Shirk Center Flipstar Gymnastics Academy All 4 Ch A 9.275 1 9.300 2 9.500 1 9.100 6T 37.175 1
2017-11-17 SCGA Classic Flipstar Gymnastics Academy 2 4 ChildA 9.450 1 8.650 6 9.150 1 9.350 1 36.600 1
2017-11-10 Illinois NAWGJ Judges Cup 2017 Flipstar Gymnastics Academy G3 4 All Ages 8.675 17T 9.125 21T 9.150 9 9.000 12T 35.950 11
2017-03-30 2017 Illinois Level 3 & 5 State Flipstar Gymnastics Academy All 3 Ch B 9.575 4 9.625 3T 9.500 1 9.100 8 37.800 1
2017-02-17 Big Classic Flipstar Gymnastics Academy B 3 Child A 9.325 4 9.250 6 9.250 3T 9.450 2 37.275 3
2017-02-10 IGI Chicago Style Gymnastics Meet Flipstar Gymnastics Academy 222L 3 JrA 9.100 10 9.475 2 9.200 4 9.200 3 36.975 4
2016-12-09 Horton Invitational Flipstar Gymnastics Academy 8 3 JrA 9.000 6 8.550 4 7.950 12 9.000 1 34.500 3
2016-11-11 2016 Illinois Judges Cup Flipstar Gymnastics Academy B5 3 6 and Unde 9.350 2 9.150 2 9.100 1 8.800 3 36.400 2
Get your scores on
a t-shirt, pin, or hoodie

www.lazysuits.com